Black Star — 9HA2911 — position and weather

sailwx.info

Track history (hours):
 
Tides and Currents Weather Stations Pressure Air Temp Water Temp Dewpoint Dewpoint Depression Visibility Wind Speed Wind Dir Waves Ship Positions

Black Star

Last reported at 2016-Sep-28 12:27 UTC. Time now 2016-Sep-28 17:10 UTC.
Position N 40°51' E 029°17'.

Length 128 m; draft 5.6 m.

Type: Ship. MMSI: 256714000.

Date/timePositionNaut miles runAvg speedWind from/ knotsBaromVisibWave heightAir tempDewpointWater temp
2016-Sep-28 12:27N 40°51' E 029°17'0 0.0
2016-Sep-28 02:21N 40°51' E 029°17'0 0.0
2016-Sep-27 23:27N 40°51' E 029°17'0 0.0
2016-Sep-27 10:16N 40°51' E 029°17'  
2016-Sep-23 19:33N 40°50' E 029°13'  
2016-Sep-21 02:11N 40°44' E 029°26'246 9.2
2016-Sep-19 23:32N 39°48' E 024°12'73 8.1
2016-Sep-19 14:33N 40°22' E 022°49'10 9.8
2016-Sep-19 13:33N 40°32' E 022°49'7 6.2
2016-Sep-19 12:24N 40°38' E 022°53'0 0.0
2016-Sep-19 11:24N 40°38' E 022°53'0 0.0
2016-Sep-19 09:30N 40°38' E 022°53'0 0.0
2016-Sep-19 07:18N 40°38' E 022°53'0 0.0
2016-Sep-19 06:30N 40°38' E 022°53'0 0.0
2016-Sep-19 03:21N 40°38' E 022°53'0 0.0
2016-Sep-19 02:33N 40°38' E 022°53'0 0.0
2016-Sep-19 00:24N 40°38' E 022°53'0 0.0
2016-Sep-18 19:30N 40°38' E 022°53'0 0.0
2016-Sep-18 15:33N 40°38' E 022°53'0 0.0
2016-Sep-18 14:33N 40°38' E 022°53'  
Track history (hours):
 
Tides and Currents Weather Stations Pressure Air Temp Water Temp Dewpoint Dewpoint Depression Visibility Wind Speed Wind Dir Waves Ship Positions

Black Star

Last reported at 2016-Sep-28 12:27 UTC. Time now 2016-Sep-28 17:10 UTC.
Position N 40°51' E 029°17'.

Length 128 m; draft 5.6 m.

Type: Ship. MMSI: 256714000.

Date/timePositionNaut miles runAvg speedWind from/ knotsBaromVisibWave heightAir tempDewpointWater temp
2016-Sep-28 12:27N 40°51' E 029°17'0 0.0
2016-Sep-28 02:21N 40°51' E 029°17'0 0.0
2016-Sep-27 23:27N 40°51' E 029°17'0 0.0
2016-Sep-27 10:16N 40°51' E 029°17'  
2016-Sep-23 19:33N 40°50' E 029°13'  
2016-Sep-21 02:11N 40°44' E 029°26'246 9.2
2016-Sep-19 23:32N 39°48' E 024°12'73 8.1
2016-Sep-19 14:33N 40°22' E 022°49'10 9.8
2016-Sep-19 13:33N 40°32' E 022°49'7 6.2
2016-Sep-19 12:24N 40°38' E 022°53'0 0.0
2016-Sep-19 11:24N 40°38' E 022°53'0 0.0
2016-Sep-19 09:30N 40°38' E 022°53'0 0.0
2016-Sep-19 07:18N 40°38' E 022°53'0 0.0
2016-Sep-19 06:30N 40°38' E 022°53'0 0.0
2016-Sep-19 03:21N 40°38' E 022°53'0 0.0
2016-Sep-19 02:33N 40°38' E 022°53'0 0.0
2016-Sep-19 00:24N 40°38' E 022°53'0 0.0
2016-Sep-18 19:30N 40°38' E 022°53'0 0.0
2016-Sep-18 15:33N 40°38' E 022°53'0 0.0
2016-Sep-18 14:33N 40°38' E 022°53'  

Dump ship's entire track history